sensor_id;sensor_type;location;lat;lon;timestamp;pressure;altitude;pressure_sealevel;temperature;humidity
40612;BME280;26317;44.894;20.286;2023-03-21T00:01:53;100829.53;;;12.95;70.83
40612;BME280;26317;44.894;20.286;2023-03-21T00:04:40;100830.91;;;12.92;71.10
40612;BME280;26317;44.894;20.286;2023-03-21T00:07:26;100826.94;;;12.84;71.43
40612;BME280;26317;44.894;20.286;2023-03-21T00:10:03;100831.25;;;12.85;71.38
40612;BME280;26317;44.894;20.286;2023-03-21T00:13:06;100804.97;;;12.62;71.85
40612;BME280;26317;44.894;20.286;2023-03-21T00:15:52;100822.41;;;12.75;72.20
40612;BME280;26317;44.894;20.286;2023-03-21T00:18:37;100818.50;;;12.47;73.18
40612;BME280;26317;44.894;20.286;2023-03-21T00:21:29;100828.75;;;12.40;73.53
40612;BME280;26317;44.894;20.286;2023-03-21T00:24:27;100812.44;;;12.21;74.35
40612;BME280;26317;44.894;20.286;2023-03-21T00:27:05;100822.38;;;12.21;74.88
40612;BME280;26317;44.894;20.286;2023-03-21T00:30:15;100822.69;;;12.04;75.81
40612;BME280;26317;44.894;20.286;2023-03-21T00:32:54;100827.81;;;12.01;76.11
40612;BME280;26317;44.894;20.286;2023-03-21T00:35:40;100825.69;;;11.97;76.41
40612;BME280;26317;44.894;20.286;2023-03-21T00:38:38;100818.19;;;11.84;77.00
40612;BME280;26317;44.894;20.286;2023-03-21T00:41:28;100809.06;;;11.80;76.93
40612;BME280;26317;44.894;20.286;2023-03-21T00:44:18;100807.16;;;11.81;76.82
40612;BME280;26317;44.894;20.286;2023-03-21T00:47:00;100818.13;;;11.94;76.55
40612;BME280;26317;44.894;20.286;2023-03-21T00:49:40;100812.25;;;11.92;76.42
40612;BME280;26317;44.894;20.286;2023-03-21T00:52:28;100816.50;;;11.98;76.52
40612;BME280;26317;44.894;20.286;2023-03-21T00:55:14;100763.34;;;11.65;76.21
40612;BME280;26317;44.894;20.286;2023-03-21T00:57:59;100808.72;;;12.02;76.02
40612;BME280;26317;44.894;20.286;2023-03-21T01:00:50;100796.13;;;11.92;76.18
40612;BME280;26317;44.894;20.286;2023-03-21T01:03:34;100806.81;;;12.03;75.80
40612;BME280;26317;44.894;20.286;2023-03-21T01:06:17;100782.38;;;11.94;75.56
40612;BME280;26317;44.894;20.286;2023-03-21T01:08:59;100805.72;;;12.19;74.95
40612;BME280;26317;44.894;20.286;2023-03-21T01:11:38;100804.59;;;12.25;74.85
40612;BME280;26317;44.894;20.286;2023-03-21T01:14:25;100806.50;;;12.24;74.75
40612;BME280;26317;44.894;20.286;2023-03-21T01:17:08;100803.53;;;12.26;74.82
40612;BME280;26317;44.894;20.286;2023-03-21T01:19:58;100806.75;;;12.28;74.09
40612;BME280;26317;44.894;20.286;2023-03-21T01:22:45;100799.47;;;12.28;72.80
40612;BME280;26317;44.894;20.286;2023-03-21T01:25:28;100802.41;;;12.32;72.03
40612;BME280;26317;44.894;20.286;2023-03-21T01:28:05;100802.69;;;12.35;72.13
40612;BME280;26317;44.894;20.286;2023-03-21T01:30:45;100795.69;;;12.34;72.41
40612;BME280;26317;44.894;20.286;2023-03-21T01:33:35;100807.78;;;12.37;71.60
40612;BME280;26317;44.894;20.286;2023-03-21T01:36:18;100795.97;;;12.28;71.62
40612;BME280;26317;44.894;20.286;2023-03-21T01:39:08;100797.63;;;12.24;71.46
40612;BME280;26317;44.894;20.286;2023-03-21T01:41:55;100789.88;;;12.12;71.47
40612;BME280;26317;44.894;20.286;2023-03-21T01:44:56;100793.09;;;12.09;71.36
40612;BME280;26317;44.894;20.286;2023-03-21T01:47:40;100784.53;;;12.02;71.38
40612;BME280;26317;44.894;20.286;2023-03-21T01:50:24;100786.97;;;11.93;71.69
40612;BME280;26317;44.894;20.286;2023-03-21T01:53:30;100784.31;;;11.88;71.76
40612;BME280;26317;44.894;20.286;2023-03-21T01:56:12;100782.97;;;11.81;71.84
40612;BME280;26317;44.894;20.286;2023-03-21T01:59:18;100779.22;;;11.72;72.33
40612;BME280;26317;44.894;20.286;2023-03-21T02:02:24;100789.16;;;11.71;72.54
40612;BME280;26317;44.894;20.286;2023-03-21T02:05:21;100781.09;;;11.61;72.89
40612;BME280;26317;44.894;20.286;2023-03-21T02:08:05;100782.72;;;11.57;73.32
40612;BME280;26317;44.894;20.286;2023-03-21T02:10:45;100777.06;;;11.59;72.91
40612;BME280;26317;44.894;20.286;2023-03-21T02:13:41;100774.13;;;11.55;73.04
40612;BME280;26317;44.894;20.286;2023-03-21T02:16:30;100746.22;;;11.31;73.33
40612;BME280;26317;44.894;20.286;2023-03-21T02:19:34;100769.56;;;11.40;73.38
40612;BME280;26317;44.894;20.286;2023-03-21T02:22:54;100764.47;;;11.39;74.13
40612;BME280;26317;44.894;20.286;2023-03-21T02:26:08;100774.13;;;11.40;74.05
40612;BME280;26317;44.894;20.286;2023-03-21T02:29:56;100767.69;;;11.41;73.98
40612;BME280;26317;44.894;20.286;2023-03-21T02:36:26;100763.94;;;11.42;73.26
40612;BME280;26317;44.894;20.286;2023-03-21T02:39:12;100755.63;;;11.38;73.50
40612;BME280;26317;44.894;20.286;2023-03-21T02:42:04;100752.66;;;11.35;74.09
40612;BME280;26317;44.894;20.286;2023-03-21T02:44:48;100733.06;;;11.19;74.42
40612;BME280;26317;44.894;20.286;2023-03-21T02:47:29;100742.44;;;11.32;74.05
40612;BME280;26317;44.894;20.286;2023-03-21T02:50:21;100745.69;;;11.29;74.23
40612;BME280;26317;44.894;20.286;2023-03-21T02:53:14;100751.06;;;11.34;73.90
40612;BME280;26317;44.894;20.286;2023-03-21T02:56:01;100757.22;;;11.34;73.58
40612;BME280;26317;44.894;20.286;2023-03-21T02:58:54;100761.00;;;11.38;73.58
40612;BME280;26317;44.894;20.286;2023-03-21T03:01:35;100759.38;;;11.32;73.52
40612;BME280;26317;44.894;20.286;2023-03-21T03:04:22;100737.91;;;11.12;73.69
40612;BME280;26317;44.894;20.286;2023-03-21T03:07:30;100769.03;;;11.28;73.67
40612;BME280;26317;44.894;20.286;2023-03-21T03:10:28;100755.09;;;11.16;74.15
40612;BME280;26317;44.894;20.286;2023-03-21T03:13:16;100753.75;;;11.14;74.42
40612;BME280;26317;44.894;20.286;2023-03-21T03:16:07;100766.09;;;11.10;74.64
40612;BME280;26317;44.894;20.286;2023-03-21T03:18:55;100760.19;;;11.02;74.11
40612;BME280;26317;44.894;20.286;2023-03-21T03:21:37;100759.66;;;11.00;74.35
40612;BME280;26317;44.894;20.286;2023-03-21T03:24:22;100755.34;;;10.99;74.50
40612;BME280;26317;44.894;20.286;2023-03-21T03:27:01;100748.38;;;10.88;74.92
40612;BME280;26317;44.894;20.286;2023-03-21T03:29:48;100777.63;;;10.95;74.96
40612;BME280;26317;44.894;20.286;2023-03-21T03:32:37;100770.38;;;10.90;75.21
40612;BME280;26317;44.894;20.286;2023-03-21T03:35:19;100771.16;;;10.86;74.92
40612;BME280;26317;44.894;20.286;2023-03-21T03:38:02;100765.00;;;10.80;75.01
40612;BME280;26317;44.894;20.286;2023-03-21T03:40:49;100763.91;;;10.81;75.09
40612;BME280;26317;44.894;20.286;2023-03-21T03:43:47;100761.50;;;10.80;74.63
40612;BME280;26317;44.894;20.286;2023-03-21T03:46:36;100754.25;;;10.75;75.03
40612;BME280;26317;44.894;20.286;2023-03-21T03:49:22;100771.69;;;10.78;75.40
40612;BME280;26317;44.894;20.286;2023-03-21T03:52:17;100778.16;;;10.77;75.64
40612;BME280;26317;44.894;20.286;2023-03-21T03:55:03;100777.34;;;10.76;74.93
40612;BME280;26317;44.894;20.286;2023-03-21T03:57:42;100782.16;;;10.74;75.60
40612;BME280;26317;44.894;20.286;2023-03-21T04:00:21;100768.75;;;10.64;75.58
40612;BME280;26317;44.894;20.286;2023-03-21T04:03:04;100775.19;;;10.68;76.03
40612;BME280;26317;44.894;20.286;2023-03-21T04:05:43;100779.19;;;10.71;76.14
40612;BME280;26317;44.894;20.286;2023-03-21T04:08:25;100769.81;;;10.68;75.65
40612;BME280;26317;44.894;20.286;2023-03-21T04:11:08;100774.66;;;10.71;75.70
40612;BME280;26317;44.894;20.286;2023-03-21T04:13:57;100773.56;;;10.72;75.75
40612;BME280;26317;44.894;20.286;2023-03-21T04:16:37;100753.41;;;10.54;75.81
40612;BME280;26317;44.894;20.286;2023-03-21T04:19:33;100773.03;;;10.70;75.78
40612;BME280;26317;44.894;20.286;2023-03-21T04:22:22;100741.88;;;10.54;76.24
40612;BME280;26317;44.894;20.286;2023-03-21T04:25:06;100770.91;;;10.72;76.81
40612;BME280;26317;44.894;20.286;2023-03-21T04:28:01;100772.22;;;10.70;77.12
40612;BME280;26317;44.894;20.286;2023-03-21T04:31:05;100777.31;;;10.66;77.36
40612;BME280;26317;44.894;20.286;2023-03-21T04:34:06;100782.69;;;10.66;77.36
40612;BME280;26317;44.894;20.286;2023-03-21T04:36:59;100787.22;;;10.66;77.27
40612;BME280;26317;44.894;20.286;2023-03-21T04:39:46;100785.34;;;10.61;76.71
40612;BME280;26317;44.894;20.286;2023-03-21T04:42:27;100778.88;;;10.57;77.13
40612;BME280;26317;44.894;20.286;2023-03-21T04:45:09;100792.31;;;10.57;76.47
40612;BME280;26317;44.894;20.286;2023-03-21T04:47:50;100775.91;;;10.48;76.76
40612;BME280;26317;44.894;20.286;2023-03-21T04:50:28;100768.13;;;10.42;76.05
40612;BME280;26317;44.894;20.286;2023-03-21T04:53:05;100789.06;;;10.50;76.37
40612;BME280;26317;44.894;20.286;2023-03-21T04:55:52;100791.19;;;10.48;76.67
40612;BME280;26317;44.894;20.286;2023-03-21T04:58:36;100796.06;;;10.51;76.54
40612;BME280;26317;44.894;20.286;2023-03-21T05:01:27;100794.72;;;10.53;76.81
40612;BME280;26317;44.894;20.286;2023-03-21T05:04:11;100801.69;;;10.54;76.88
40612;BME280;26317;44.894;20.286;2023-03-21T05:06:53;100783.41;;;10.41;76.72
40612;BME280;26317;44.894;20.286;2023-03-21T05:09:39;100784.78;;;10.49;77.08
40612;BME280;26317;44.894;20.286;2023-03-21T05:12:17;100778.03;;;10.41;77.15
40612;BME280;26317;44.894;20.286;2023-03-21T05:15:03;100796.31;;;10.54;77.56
40612;BME280;26317;44.894;20.286;2023-03-21T05:17:37;100766.25;;;10.37;77.95
40612;BME280;26317;44.894;20.286;2023-03-21T05:20:24;100801.69;;;10.65;77.80
40612;BME280;26317;44.894;20.286;2023-03-21T05:22:59;100803.88;;;10.68;77.81
40612;BME280;26317;44.894;20.286;2023-03-21T05:25:41;100771.91;;;10.51;77.74
40612;BME280;26317;44.894;20.286;2023-03-21T05:28:21;100802.81;;;10.74;77.58
40612;BME280;26317;44.894;20.286;2023-03-21T05:31:02;100796.66;;;10.78;77.45
40612;BME280;26317;44.894;20.286;2023-03-21T05:33:39;100802.81;;;10.79;77.18
40612;BME280;26317;44.894;20.286;2023-03-21T05:36:21;100806.56;;;10.78;77.39
40612;BME280;26317;44.894;20.286;2023-03-21T05:38:56;100796.09;;;10.71;77.12
40612;BME280;26317;44.894;20.286;2023-03-21T05:41:39;100802.00;;;10.73;77.23
40612;BME280;26317;44.894;20.286;2023-03-21T05:44:30;100808.75;;;10.81;77.64
40612;BME280;26317;44.894;20.286;2023-03-21T05:47:05;100818.13;;;10.83;77.71
40612;BME280;26317;44.894;20.286;2023-03-21T05:49:47;100809.81;;;10.80;77.60
40612;BME280;26317;44.894;20.286;2023-03-21T05:52:25;100804.97;;;10.82;77.52
40612;BME280;26317;44.894;20.286;2023-03-21T05:55:19;100813.84;;;10.92;77.76
40612;BME280;26317;44.894;20.286;2023-03-21T05:58:03;100807.41;;;10.98;78.33
40612;BME280;26317;44.894;20.286;2023-03-21T06:00:55;100802.59;;;11.05;78.11
40612;BME280;26317;44.894;20.286;2023-03-21T06:03:40;100797.78;;;11.13;78.40
40612;BME280;26317;44.894;20.286;2023-03-21T06:06:26;100809.03;;;11.20;78.94
40612;BME280;26317;44.894;20.286;2023-03-21T06:09:14;100784.63;;;11.06;79.71
40612;BME280;26317;44.894;20.286;2023-03-21T06:15:29;100811.75;;;11.35;81.94
40612;BME280;26317;44.894;20.286;2023-03-21T06:18:27;100809.03;;;11.40;82.27
40612;BME280;26317;44.894;20.286;2023-03-21T06:21:24;100815.50;;;11.44;82.72
40612;BME280;26317;44.894;20.286;2023-03-21T06:24:10;100811.72;;;11.45;83.59
40612;BME280;26317;44.894;20.286;2023-03-21T06:26:47;100808.78;;;11.46;84.00
40612;BME280;26317;44.894;20.286;2023-03-21T06:29:30;100809.56;;;11.57;85.19
40612;BME280;26317;44.894;20.286;2023-03-21T06:32:19;100794.00;;;11.54;85.73
40612;BME280;26317;44.894;20.286;2023-03-21T06:35:11;100798.84;;;11.52;85.89
40612;BME280;26317;44.894;20.286;2023-03-21T06:37:50;100805.31;;;11.56;86.00
40612;BME280;26317;44.894;20.286;2023-03-21T06:40:36;100813.06;;;11.63;86.29
40612;BME280;26317;44.894;20.286;2023-03-21T06:43:20;100811.19;;;11.68;87.13
40612;BME280;26317;44.894;20.286;2023-03-21T06:46:00;100805.00;;;11.63;87.20
40612;BME280;26317;44.894;20.286;2023-03-21T06:48:52;100813.06;;;11.63;88.61
40612;BME280;26317;44.894;20.286;2023-03-21T06:54:26;100808.75;;;11.57;89.30
40612;BME280;26317;44.894;20.286;2023-03-21T06:57:09;100798.84;;;11.52;89.83
40612;BME280;26317;44.894;20.286;2023-03-21T06:59:51;100818.47;;;11.73;89.97
40612;BME280;26317;44.894;20.286;2023-03-21T07:02:25;100821.94;;;11.78;90.42
40612;BME280;26317;44.894;20.286;2023-03-21T07:05:17;100831.34;;;11.81;90.26
40612;BME280;26317;44.894;20.286;2023-03-21T07:08:05;100812.00;;;11.79;90.90
40612;BME280;26317;44.894;20.286;2023-03-21T07:10:43;100827.25;;;12.04;90.95
40612;BME280;26317;44.894;20.286;2023-03-21T07:13:24;100832.63;;;12.14;90.20
40612;BME280;26317;44.894;20.286;2023-03-21T07:16:10;100816.75;;;12.12;90.13
40612;BME280;26317;44.894;20.286;2023-03-21T07:18:55;100827.44;;;12.32;89.16
40612;BME280;26317;44.894;20.286;2023-03-21T07:21:43;100830.91;;;12.38;89.19
40612;BME280;26317;44.894;20.286;2023-03-21T07:24:22;100826.59;;;12.42;89.11
40612;BME280;26317;44.894;20.286;2023-03-21T07:26:55;100831.06;;;12.62;88.70
40612;BME280;26317;44.894;20.286;2023-03-21T07:29:32;100833.00;;;12.56;86.84
40612;BME280;26317;44.894;20.286;2023-03-21T07:32:16;100840.50;;;12.64;86.20
40612;BME280;26317;44.894;20.286;2023-03-21T07:34:53;100841.56;;;12.68;86.54
40612;BME280;26317;44.894;20.286;2023-03-21T07:37:38;100843.94;;;12.70;85.49
40612;BME280;26317;44.894;20.286;2023-03-21T07:40:20;100841.00;;;12.66;86.08
40612;BME280;26317;44.894;20.286;2023-03-21T07:42:57;100848.53;;;12.69;86.33
40612;BME280;26317;44.894;20.286;2023-03-21T07:45:37;100847.44;;;12.70;86.65
40612;BME280;26317;44.894;20.286;2023-03-21T07:48:12;100835.03;;;12.74;86.45
40612;BME280;26317;44.894;20.286;2023-03-21T07:50:49;100836.13;;;12.73;87.35
40612;BME280;26317;44.894;20.286;2023-03-21T07:53:32;100837.66;;;12.89;86.34
40612;BME280;26317;44.894;20.286;2023-03-21T07:56:19;100825.78;;;12.96;85.90
40612;BME280;26317;44.894;20.286;2023-03-21T07:59:02;100813.84;;;13.12;85.06
40612;BME280;26317;44.894;20.286;2023-03-21T08:01:40;100815.63;;;13.26;84.79
40612;BME280;26317;44.894;20.286;2023-03-21T08:04:16;100807.75;;;13.35;82.80
40612;BME280;26317;44.894;20.286;2023-03-21T08:06:53;100807.34;;;13.52;82.43
40612;BME280;26317;44.894;20.286;2023-03-21T08:09:47;100803.19;;;13.64;81.38
40612;BME280;26317;44.894;20.286;2023-03-21T08:12:19;100816.16;;;13.86;80.67
40612;BME280;26317;44.894;20.286;2023-03-21T08:15:08;100813.59;;;14.00;80.79
40612;BME280;26317;44.894;20.286;2023-03-21T08:17:49;100816.69;;;14.12;79.56
40612;BME280;26317;44.894;20.286;2023-03-21T08:20:30;100808.03;;;14.15;79.03
40612;BME280;26317;44.894;20.286;2023-03-21T08:23:13;100806.13;;;14.15;78.25
40612;BME280;26317;44.894;20.286;2023-03-21T08:25:55;100808.88;;;14.34;77.03
40612;BME280;26317;44.894;20.286;2023-03-21T08:28:35;100802.28;;;14.45;77.99
40612;BME280;26317;44.894;20.286;2023-03-21T08:31:18;100804.00;;;14.60;76.58
40612;BME280;26317;44.894;20.286;2023-03-21T08:34:00;100804.16;;;14.68;74.29
40612;BME280;26317;44.894;20.286;2023-03-21T08:36:37;100801.94;;;14.70;74.63
40612;BME280;26317;44.894;20.286;2023-03-21T08:39:21;100799.53;;;14.50;75.03
40612;BME280;26317;44.894;20.286;2023-03-21T08:42:09;100822.66;;;14.56;75.13
40612;BME280;26317;44.894;20.286;2023-03-21T08:44:53;100813.03;;;14.50;72.13
40612;BME280;26317;44.894;20.286;2023-03-21T08:47:35;100817.72;;;14.63;70.42
40612;BME280;26317;44.894;20.286;2023-03-21T08:50:21;100821.88;;;14.74;71.51
40612;BME280;26317;44.894;20.286;2023-03-21T08:53:13;100812.91;;;14.79;73.14
40612;BME280;26317;44.894;20.286;2023-03-21T08:56:00;100815.75;;;14.88;68.17
40612;BME280;26317;44.894;20.286;2023-03-21T08:58:37;100811.72;;;14.66;69.95
40612;BME280;26317;44.894;20.286;2023-03-21T09:01:20;100815.09;;;14.96;68.69
40612;BME280;26317;44.894;20.286;2023-03-21T09:04:03;100818.53;;;15.01;67.82
40612;BME280;26317;44.894;20.286;2023-03-21T09:06:42;100820.53;;;15.28;67.36
40612;BME280;26317;44.894;20.286;2023-03-21T09:09:30;100816.50;;;15.44;65.97
40612;BME280;26317;44.894;20.286;2023-03-21T09:12:02;100814.66;;;15.58;63.30
40612;BME280;26317;44.894;20.286;2023-03-21T09:14:47;100813.78;;;15.77;63.81
40612;BME280;26317;44.894;20.286;2023-03-21T09:17:29;100821.94;;;15.90;64.32
40612;BME280;26317;44.894;20.286;2023-03-21T09:20:17;100819.53;;;16.16;63.25
40612;BME280;26317;44.894;20.286;2023-03-21T09:23:04;100816.13;;;16.38;62.15
40612;BME280;26317;44.894;20.286;2023-03-21T09:25:40;100817.22;;;16.64;60.17
40612;BME280;26317;44.894;20.286;2023-03-21T09:28:16;100811.97;;;16.81;60.08
40612;BME280;26317;44.894;20.286;2023-03-21T09:31:11;100806.25;;;17.05;59.63
40612;BME280;26317;44.894;20.286;2023-03-21T09:34:01;100814.97;;;17.16;56.40
40612;BME280;26317;44.894;20.286;2023-03-21T09:36:42;100804.03;;;17.29;57.40
40612;BME280;26317;44.894;20.286;2023-03-21T09:39:22;100804.72;;;17.35;57.56
40612;BME280;26317;44.894;20.286;2023-03-21T09:42:30;100808.38;;;17.30;56.90
40612;BME280;26317;44.894;20.286;2023-03-21T09:45:20;100803.19;;;17.20;59.09
40612;BME280;26317;44.894;20.286;2023-03-21T09:48:16;100803.56;;;17.05;59.92
40612;BME280;26317;44.894;20.286;2023-03-21T09:51:02;100808.72;;;16.93;60.44
40612;BME280;26317;44.894;20.286;2023-03-21T09:53:59;100786.69;;;16.72;60.69
40612;BME280;26317;44.894;20.286;2023-03-21T09:56:44;100809.06;;;16.78;59.98
40612;BME280;26317;44.894;20.286;2023-03-21T09:59:33;100808.25;;;16.77;61.94
40612;BME280;26317;44.894;20.286;2023-03-21T10:02:32;100801.66;;;16.70;60.53
40612;BME280;26317;44.894;20.286;2023-03-21T10:05:18;100778.94;;;16.30;60.94
40612;BME280;26317;44.894;20.286;2023-03-21T10:07:58;100784.81;;;16.45;61.71
40612;BME280;26317;44.894;20.286;2023-03-21T10:13:43;100790.75;;;16.34;62.34
40612;BME280;26317;44.894;20.286;2023-03-21T10:16:29;100788.94;;;16.29;62.64
40612;BME280;26317;44.894;20.286;2023-03-21T10:19:12;100797.50;;;16.36;61.19
40612;BME280;26317;44.894;20.286;2023-03-21T10:21:58;100798.16;;;16.28;58.22
40612;BME280;26317;44.894;20.286;2023-03-21T10:24:36;100782.34;;;16.22;60.13
40612;BME280;26317;44.894;20.286;2023-03-21T10:27:14;100789.56;;;16.40;59.26
40612;BME280;26317;44.894;20.286;2023-03-21T10:29:51;100779.31;;;16.37;60.03
40612;BME280;26317;44.894;20.286;2023-03-21T10:32:34;100781.25;;;16.36;61.31
40612;BME280;26317;44.894;20.286;2023-03-21T10:35:14;100776.09;;;16.48;62.19
40612;BME280;26317;44.894;20.286;2023-03-21T10:37:55;100767.38;;;16.51;60.81
40612;BME280;26317;44.894;20.286;2023-03-21T10:40:35;100776.47;;;16.55;61.30
40612;BME280;26317;44.894;20.286;2023-03-21T10:43:20;100777.22;;;16.61;61.20
40612;BME280;26317;44.894;20.286;2023-03-21T10:46:11;100779.50;;;16.68;61.08
40612;BME280;26317;44.894;20.286;2023-03-21T10:48:54;100773.56;;;16.66;61.45
40612;BME280;26317;44.894;20.286;2023-03-21T10:51:31;100772.25;;;16.77;61.41
40612;BME280;26317;44.894;20.286;2023-03-21T10:54:19;100770.78;;;16.93;60.27
40612;BME280;26317;44.894;20.286;2023-03-21T10:57:09;100768.13;;;17.01;61.80
40612;BME280;26317;44.894;20.286;2023-03-21T10:59:59;100752.19;;;17.22;60.96
40612;BME280;26317;44.894;20.286;2023-03-21T11:02:48;100746.97;;;17.34;60.37
40612;BME280;26317;44.894;20.286;2023-03-21T11:05:35;100745.88;;;17.35;59.70
40612;BME280;26317;44.894;20.286;2023-03-21T11:08:19;100744.78;;;17.36;59.42
40612;BME280;26317;44.894;20.286;2023-03-21T11:11:07;100743.13;;;17.58;60.00
40612;BME280;26317;44.894;20.286;2023-03-21T11:13:57;100741.91;;;17.64;58.79
40612;BME280;26317;44.894;20.286;2023-03-21T11:16:47;100729.50;;;17.80;58.15
40612;BME280;26317;44.894;20.286;2023-03-21T11:19:34;100727.44;;;17.77;58.46
40612;BME280;26317;44.894;20.286;2023-03-21T11:22:15;100716.81;;;17.58;57.76
40612;BME280;26317;44.894;20.286;2023-03-21T11:24:53;100735.25;;;17.78;57.99
40612;BME280;26317;44.894;20.286;2023-03-21T11:27:46;100729.34;;;17.76;58.06
40612;BME280;26317;44.894;20.286;2023-03-21T11:30:24;100711.16;;;17.77;59.42
40612;BME280;26317;44.894;20.286;2023-03-21T11:33:06;100720.13;;;17.86;58.51
40612;BME280;26317;44.894;20.286;2023-03-21T11:36:01;100711.22;;;17.94;57.20
40612;BME280;26317;44.894;20.286;2023-03-21T11:38:38;100705.66;;;17.99;55.78
40612;BME280;26317;44.894;20.286;2023-03-21T11:41:28;100674.59;;;17.83;56.86
40612;BME280;26317;44.894;20.286;2023-03-21T11:44:21;100696.53;;;18.04;56.98
40612;BME280;26317;44.894;20.286;2023-03-21T11:47:03;100695.75;;;18.20;56.63
40612;BME280;26317;44.894;20.286;2023-03-21T11:49:40;100685.09;;;18.32;55.60
40612;BME280;26317;44.894;20.286;2023-03-21T11:52:35;100676.50;;;18.56;54.86
40612;BME280;26317;44.894;20.286;2023-03-21T11:55:23;100680.63;;;18.79;54.45
40612;BME280;26317;44.894;20.286;2023-03-21T11:58:21;100665.41;;;18.96;53.48
40612;BME280;26317;44.894;20.286;2023-03-21T12:01:18;100670.19;;;19.07;52.28
40612;BME280;26317;44.894;20.286;2023-03-21T12:04:15;100651.84;;;19.34;48.67
40612;BME280;26317;44.894;20.286;2023-03-21T12:06:57;100651.91;;;19.63;50.99
40612;BME280;26317;44.894;20.286;2023-03-21T12:09:41;100648.59;;;19.87;49.41
40612;BME280;26317;44.894;20.286;2023-03-21T12:12:40;100624.94;;;19.79;47.30
40612;BME280;26317;44.894;20.286;2023-03-21T12:15:23;100624.78;;;19.75;47.25
40612;BME280;26317;44.894;20.286;2023-03-21T12:18:15;100637.28;;;19.76;47.55
40612;BME280;26317;44.894;20.286;2023-03-21T12:21:11;100641.78;;;19.72;48.15
40612;BME280;26317;44.894;20.286;2023-03-21T12:24:04;100614.66;;;19.55;47.85
40612;BME280;26317;44.894;20.286;2023-03-21T12:26:56;100637.19;;;19.64;47.82
40612;BME280;26317;44.894;20.286;2023-03-21T12:29:54;100627.19;;;19.39;47.69
40612;BME280;26317;44.894;20.286;2023-03-21T12:32:51;100628.47;;;19.41;47.70
40612;BME280;26317;44.894;20.286;2023-03-21T12:35:49;100629.09;;;19.47;47.54
40612;BME280;26317;44.894;20.286;2023-03-21T12:38:38;100622.72;;;19.43;47.65
40612;BME280;26317;44.894;20.286;2023-03-21T12:41:21;100618.56;;;19.45;47.38
40612;BME280;26317;44.894;20.286;2023-03-21T12:44:07;100605.28;;;19.35;46.74
40612;BME280;26317;44.894;20.286;2023-03-21T12:46:53;100605.16;;;19.32;46.74
40612;BME280;26317;44.894;20.286;2023-03-21T12:49:43;100603.38;;;19.36;47.38
40612;BME280;26317;44.894;20.286;2023-03-21T12:52:30;100596.59;;;19.42;47.45
40612;BME280;26317;44.894;20.286;2023-03-21T12:55:15;100597.75;;;19.41;46.07
40612;BME280;26317;44.894;20.286;2023-03-21T12:58:02;100583.81;;;19.42;47.15
40612;BME280;26317;44.894;20.286;2023-03-21T13:00:47;100581.44;;;19.41;46.06
40612;BME280;26317;44.894;20.286;2023-03-21T13:03:42;100582.66;;;19.52;46.27
40612;BME280;26317;44.894;20.286;2023-03-21T13:06:43;100583.88;;;19.63;46.91
40612;BME280;26317;44.894;20.286;2023-03-21T13:09:30;100581.50;;;19.61;48.36
40612;BME280;26317;44.894;20.286;2023-03-21T13:12:35;100554.88;;;19.38;52.35
40612;BME280;26317;44.894;20.286;2023-03-21T13:15:44;100575.44;;;19.56;50.98
40612;BME280;26317;44.894;20.286;2023-03-21T13:18:53;100563.59;;;19.81;51.84
40612;BME280;26317;44.894;20.286;2023-03-21T13:22:00;100556.66;;;20.04;48.89
40612;BME280;26317;44.894;20.286;2023-03-21T13:24:49;100560.38;;;20.20;48.32
40612;BME280;26317;44.894;20.286;2023-03-21T13:27:33;100545.63;;;20.21;48.23
40612;BME280;26317;44.894;20.286;2023-03-21T13:30:21;100553.06;;;20.33;48.73
40612;BME280;26317;44.894;20.286;2023-03-21T13:33:14;100544.72;;;20.50;46.28
40612;BME280;26317;44.894;20.286;2023-03-21T13:36:04;100554.19;;;20.65;46.08
40612;BME280;26317;44.894;20.286;2023-03-21T13:38:51;100544.91;;;20.78;47.35
40612;BME280;26317;44.894;20.286;2023-03-21T13:41:35;100545.16;;;20.85;45.85
40612;BME280;26317;44.894;20.286;2023-03-21T13:44:30;100544.91;;;20.66;45.12
40612;BME280;26317;44.894;20.286;2023-03-21T13:47:30;100540.09;;;20.63;45.30
40612;BME280;26317;44.894;20.286;2023-03-21T13:50:33;100534.72;;;20.42;43.88
40612;BME280;26317;44.894;20.286;2023-03-21T13:53:32;100534.94;;;20.16;44.64
40612;BME280;26317;44.894;20.286;2023-03-21T13:59:51;100532.72;;;19.77;44.91
40612;BME280;26317;44.894;20.286;2023-03-21T14:02:57;100534.69;;;19.68;44.75
40612;BME280;26317;44.894;20.286;2023-03-21T14:05:41;100536.50;;;19.64;45.51
40612;BME280;26317;44.894;20.286;2023-03-21T14:08:19;100527.94;;;19.53;44.17
40612;BME280;26317;44.894;20.286;2023-03-21T14:11:15;100492.66;;;19.36;44.48
40612;BME280;26317;44.894;20.286;2023-03-21T14:14:05;100529.19;;;19.56;44.40
40612;BME280;26317;44.894;20.286;2023-03-21T14:16:47;100516.69;;;19.55;45.32
40612;BME280;26317;44.894;20.286;2023-03-21T14:19:30;100521.09;;;19.68;44.75
40612;BME280;26317;44.894;20.286;2023-03-21T14:22:14;100518.84;;;19.70;46.18
40612;BME280;26317;44.894;20.286;2023-03-21T14:24:57;100521.41;;;19.66;45.76
40612;BME280;26317;44.894;20.286;2023-03-21T14:27:55;100519.22;;;19.60;46.64
40612;BME280;26317;44.894;20.286;2023-03-21T14:30:42;100512.19;;;19.59;46.89
40612;BME280;26317;44.894;20.286;2023-03-21T14:33:35;100506.88;;;19.62;46.72
40612;BME280;26317;44.894;20.286;2023-03-21T14:36:19;100504.88;;;19.51;46.89
40612;BME280;26317;44.894;20.286;2023-03-21T14:39:14;100504.03;;;19.59;45.43